sensor_id;sensor_type;location;lat;lon;timestamp;P1;durP1;ratioP1;P2;durP2;ratioP2
54993;SDS011;40891;47.242;8.648;2023-02-19T00:00:55;3.37;;;2.50;;
54993;SDS011;40891;47.242;8.648;2023-02-19T00:03:20;3.13;;;2.13;;
54993;SDS011;40891;47.242;8.648;2023-02-19T00:05:45;3.50;;;2.40;;
54993;SDS011;40891;47.242;8.648;2023-02-19T00:08:11;4.97;;;2.37;;
54993;SDS011;40891;47.242;8.648;2023-02-19T00:10:36;3.33;;;2.30;;
54993;SDS011;40891;47.242;8.648;2023-02-19T00:13:01;3.47;;;2.30;;
54993;SDS011;40891;47.242;8.648;2023-02-19T00:15:26;3.47;;;2.40;;
54993;SDS011;40891;47.242;8.648;2023-02-19T00:17:52;4.27;;;2.60;;
54993;SDS011;40891;47.242;8.648;2023-02-19T00:20:17;3.40;;;2.30;;
54993;SDS011;40891;47.242;8.648;2023-02-19T00:22:42;4.87;;;2.47;;
54993;SDS011;40891;47.242;8.648;2023-02-19T00:25:08;4.43;;;2.50;;
54993;SDS011;40891;47.242;8.648;2023-02-19T00:27:33;3.30;;;2.10;;
54993;SDS011;40891;47.242;8.648;2023-02-19T00:29:58;3.43;;;2.33;;
54993;SDS011;40891;47.242;8.648;2023-02-19T00:32:25;4.43;;;2.57;;
54993;SDS011;40891;47.242;8.648;2023-02-19T00:34:50;4.83;;;2.30;;
54993;SDS011;40891;47.242;8.648;2023-02-19T00:37:15;2.83;;;2.10;;
54993;SDS011;40891;47.242;8.648;2023-02-19T00:39:41;4.07;;;2.30;;
54993;SDS011;40891;47.242;8.648;2023-02-19T00:42:06;3.20;;;2.40;;
54993;SDS011;40891;47.242;8.648;2023-02-19T00:44:31;4.00;;;2.27;;
54993;SDS011;40891;47.242;8.648;2023-02-19T00:46:56;3.13;;;2.37;;
54993;SDS011;40891;47.242;8.648;2023-02-19T00:49:22;6.10;;;2.40;;
54993;SDS011;40891;47.242;8.648;2023-02-19T00:51:48;3.93;;;2.43;;
54993;SDS011;40891;47.242;8.648;2023-02-19T00:54:15;3.33;;;2.20;;
54993;SDS011;40891;47.242;8.648;2023-02-19T00:56:41;2.50;;;2.00;;
54993;SDS011;40891;47.242;8.648;2023-02-19T00:59:07;3.70;;;2.47;;
54993;SDS011;40891;47.242;8.648;2023-02-19T01:01:32;4.10;;;2.37;;
54993;SDS011;40891;47.242;8.648;2023-02-19T01:03:57;4.07;;;2.30;;
54993;SDS011;40891;47.242;8.648;2023-02-19T01:06:23;2.83;;;2.30;;
54993;SDS011;40891;47.242;8.648;2023-02-19T01:08:48;2.77;;;2.30;;
54993;SDS011;40891;47.242;8.648;2023-02-19T01:11:14;4.20;;;2.77;;
54993;SDS011;40891;47.242;8.648;2023-02-19T01:13:40;3.57;;;2.50;;
54993;SDS011;40891;47.242;8.648;2023-02-19T01:16:19;3.70;;;2.40;;
54993;SDS011;40891;47.242;8.648;2023-02-19T01:18:46;4.03;;;2.40;;
54993;SDS011;40891;47.242;8.648;2023-02-19T01:21:13;4.67;;;3.37;;
54993;SDS011;40891;47.242;8.648;2023-02-19T01:23:41;3.30;;;2.50;;
54993;SDS011;40891;47.242;8.648;2023-02-19T01:26:07;2.90;;;2.43;;
54993;SDS011;40891;47.242;8.648;2023-02-19T01:28:35;3.75;;;2.72;;
54993;SDS011;40891;47.242;8.648;2023-02-19T01:31:01;3.37;;;2.40;;
54993;SDS011;40891;47.242;8.648;2023-02-19T01:33:28;5.00;;;2.83;;
54993;SDS011;40891;47.242;8.648;2023-02-19T01:35:53;3.93;;;2.67;;
54993;SDS011;40891;47.242;8.648;2023-02-19T01:38:19;4.40;;;2.90;;
54993;SDS011;40891;47.242;8.648;2023-02-19T01:40:44;6.00;;;3.10;;
54993;SDS011;40891;47.242;8.648;2023-02-19T01:43:13;5.63;;;3.10;;
54993;SDS011;40891;47.242;8.648;2023-02-19T01:45:42;5.57;;;2.93;;
54993;SDS011;40891;47.242;8.648;2023-02-19T01:51:13;5.53;;;3.10;;
54993;SDS011;40891;47.242;8.648;2023-02-19T01:53:44;4.50;;;2.87;;
54993;SDS011;40891;47.242;8.648;2023-02-19T01:56:14;7.07;;;2.90;;
54993;SDS011;40891;47.242;8.648;2023-02-19T01:58:42;3.47;;;2.77;;
54993;SDS011;40891;47.242;8.648;2023-02-19T02:01:09;3.97;;;2.97;;
54993;SDS011;40891;47.242;8.648;2023-02-19T02:03:35;4.93;;;3.27;;
54993;SDS011;40891;47.242;8.648;2023-02-19T02:06:04;6.70;;;3.57;;
54993;SDS011;40891;47.242;8.648;2023-02-19T02:08:36;6.23;;;2.80;;
54993;SDS011;40891;47.242;8.648;2023-02-19T02:11:20;6.73;;;3.67;;
54993;SDS011;40891;47.242;8.648;2023-02-19T02:13:46;4.97;;;3.40;;
54993;SDS011;40891;47.242;8.648;2023-02-19T02:24:05;6.07;;;3.60;;
54993;SDS011;40891;47.242;8.648;2023-02-19T02:35:19;4.93;;;3.30;;
54993;SDS011;40891;47.242;8.648;2023-02-19T02:37:47;5.17;;;4.10;;
54993;SDS011;40891;47.242;8.648;2023-02-19T02:40:15;5.63;;;3.57;;
54993;SDS011;40891;47.242;8.648;2023-02-19T02:42:42;7.53;;;3.23;;
54993;SDS011;40891;47.242;8.648;2023-02-19T02:45:27;5.60;;;3.87;;
54993;SDS011;40891;47.242;8.648;2023-02-19T02:48:00;6.20;;;3.77;;
54993;SDS011;40891;47.242;8.648;2023-02-19T02:50:33;6.00;;;3.37;;
54993;SDS011;40891;47.242;8.648;2023-02-19T02:53:07;7.77;;;3.60;;
54993;SDS011;40891;47.242;8.648;2023-02-19T02:56:12;6.60;;;3.53;;
54993;SDS011;40891;47.242;8.648;2023-02-19T02:58:39;6.40;;;3.80;;
54993;SDS011;40891;47.242;8.648;2023-02-19T03:01:07;5.53;;;3.10;;
54993;SDS011;40891;47.242;8.648;2023-02-19T03:03:59;5.17;;;3.53;;
54993;SDS011;40891;47.242;8.648;2023-02-19T03:06:28;5.00;;;3.47;;
54993;SDS011;40891;47.242;8.648;2023-02-19T03:11:35;4.47;;;3.40;;
54993;SDS011;40891;47.242;8.648;2023-02-19T03:14:24;5.53;;;3.73;;
54993;SDS011;40891;47.242;8.648;2023-02-19T03:17:21;4.90;;;3.67;;
54993;SDS011;40891;47.242;8.648;2023-02-19T03:20:12;5.23;;;3.60;;
54993;SDS011;40891;47.242;8.648;2023-02-19T03:22:40;6.00;;;3.50;;
54993;SDS011;40891;47.242;8.648;2023-02-19T03:25:14;6.47;;;3.83;;
54993;SDS011;40891;47.242;8.648;2023-02-19T03:28:02;6.30;;;3.97;;
54993;SDS011;40891;47.242;8.648;2023-02-19T03:30:32;6.60;;;3.90;;
54993;SDS011;40891;47.242;8.648;2023-02-19T03:33:01;6.40;;;3.80;;
54993;SDS011;40891;47.242;8.648;2023-02-19T03:35:33;6.90;;;3.90;;
54993;SDS011;40891;47.242;8.648;2023-02-19T03:41:10;6.33;;;4.30;;
54993;SDS011;40891;47.242;8.648;2023-02-19T03:43:51;6.60;;;3.93;;
54993;SDS011;40891;47.242;8.648;2023-02-19T03:46:46;7.47;;;4.30;;
54993;SDS011;40891;47.242;8.648;2023-02-19T03:54:34;7.77;;;4.40;;
54993;SDS011;40891;47.242;8.648;2023-02-19T03:57:20;6.97;;;3.90;;
54993;SDS011;40891;47.242;8.648;2023-02-19T04:00:16;7.30;;;3.93;;
54993;SDS011;40891;47.242;8.648;2023-02-19T04:02:46;7.93;;;3.67;;
54993;SDS011;40891;47.242;8.648;2023-02-19T04:05:17;7.33;;;4.10;;
54993;SDS011;40891;47.242;8.648;2023-02-19T04:07:48;5.97;;;3.80;;
54993;SDS011;40891;47.242;8.648;2023-02-19T04:10:17;5.87;;;3.83;;
54993;SDS011;40891;47.242;8.648;2023-02-19T04:12:44;5.20;;;3.70;;
54993;SDS011;40891;47.242;8.648;2023-02-19T04:15:16;5.97;;;3.97;;
54993;SDS011;40891;47.242;8.648;2023-02-19T04:17:47;6.07;;;3.57;;
54993;SDS011;40891;47.242;8.648;2023-02-19T04:20:19;5.63;;;4.20;;
54993;SDS011;40891;47.242;8.648;2023-02-19T04:22:47;6.17;;;3.80;;
54993;SDS011;40891;47.242;8.648;2023-02-19T04:25:12;4.73;;;3.53;;
54993;SDS011;40891;47.242;8.648;2023-02-19T04:27:38;6.73;;;3.90;;
54993;SDS011;40891;47.242;8.648;2023-02-19T04:30:05;6.60;;;3.63;;
54993;SDS011;40891;47.242;8.648;2023-02-19T04:32:31;5.43;;;3.60;;
54993;SDS011;40891;47.242;8.648;2023-02-19T04:34:57;4.30;;;3.43;;
54993;SDS011;40891;47.242;8.648;2023-02-19T04:37:22;5.30;;;3.50;;
54993;SDS011;40891;47.242;8.648;2023-02-19T04:39:47;6.20;;;3.27;;
54993;SDS011;40891;47.242;8.648;2023-02-19T04:42:13;5.23;;;3.27;;
54993;SDS011;40891;47.242;8.648;2023-02-19T04:44:38;6.53;;;3.60;;
54993;SDS011;40891;47.242;8.648;2023-02-19T04:47:04;8.23;;;3.33;;
54993;SDS011;40891;47.242;8.648;2023-02-19T04:49:29;5.33;;;3.60;;
54993;SDS011;40891;47.242;8.648;2023-02-19T04:51:55;6.40;;;3.03;;
54993;SDS011;40891;47.242;8.648;2023-02-19T04:54:20;5.43;;;3.77;;
54993;SDS011;40891;47.242;8.648;2023-02-19T04:56:45;4.33;;;3.30;;
54993;SDS011;40891;47.242;8.648;2023-02-19T04:59:11;7.60;;;3.17;;
54993;SDS011;40891;47.242;8.648;2023-02-19T05:01:36;9.40;;;3.30;;
54993;SDS011;40891;47.242;8.648;2023-02-19T05:04:01;5.13;;;3.40;;
54993;SDS011;40891;47.242;8.648;2023-02-19T05:06:28;4.80;;;2.80;;
54993;SDS011;40891;47.242;8.648;2023-02-19T05:08:54;4.27;;;3.17;;
54993;SDS011;40891;47.242;8.648;2023-02-19T05:11:19;4.20;;;2.97;;
54993;SDS011;40891;47.242;8.648;2023-02-19T05:13:44;4.17;;;3.17;;
54993;SDS011;40891;47.242;8.648;2023-02-19T05:16:11;6.17;;;2.93;;
54993;SDS011;40891;47.242;8.648;2023-02-19T05:18:39;4.43;;;3.03;;
54993;SDS011;40891;47.242;8.648;2023-02-19T05:21:06;3.77;;;2.73;;
54993;SDS011;40891;47.242;8.648;2023-02-19T05:23:31;3.97;;;2.87;;
54993;SDS011;40891;47.242;8.648;2023-02-19T05:25:57;4.67;;;3.37;;
54993;SDS011;40891;47.242;8.648;2023-02-19T05:28:23;4.63;;;3.20;;
54993;SDS011;40891;47.242;8.648;2023-02-19T05:30:53;5.30;;;3.00;;
54993;SDS011;40891;47.242;8.648;2023-02-19T05:33:20;4.43;;;3.30;;
54993;SDS011;40891;47.242;8.648;2023-02-19T05:35:47;6.83;;;3.53;;
54993;SDS011;40891;47.242;8.648;2023-02-19T05:38:14;4.60;;;3.43;;
54993;SDS011;40891;47.242;8.648;2023-02-19T05:40:40;3.83;;;2.63;;
54993;SDS011;40891;47.242;8.648;2023-02-19T05:43:06;5.63;;;3.20;;
54993;SDS011;40891;47.242;8.648;2023-02-19T05:45:32;4.93;;;3.13;;
54993;SDS011;40891;47.242;8.648;2023-02-19T05:47:58;6.87;;;3.67;;
54993;SDS011;40891;47.242;8.648;2023-02-19T05:50:24;6.60;;;3.43;;
54993;SDS011;40891;47.242;8.648;2023-02-19T05:52:50;7.63;;;3.30;;
54993;SDS011;40891;47.242;8.648;2023-02-19T05:55:15;3.97;;;2.97;;
54993;SDS011;40891;47.242;8.648;2023-02-19T05:57:41;4.57;;;2.87;;
54993;SDS011;40891;47.242;8.648;2023-02-19T06:00:15;6.43;;;3.50;;
54993;SDS011;40891;47.242;8.648;2023-02-19T06:02:42;6.70;;;3.90;;
54993;SDS011;40891;47.242;8.648;2023-02-19T06:05:08;7.87;;;3.60;;
54993;SDS011;40891;47.242;8.648;2023-02-19T06:07:34;6.10;;;4.00;;
54993;SDS011;40891;47.242;8.648;2023-02-19T06:10:00;5.13;;;3.40;;
54993;SDS011;40891;47.242;8.648;2023-02-19T06:12:26;7.40;;;3.80;;
54993;SDS011;40891;47.242;8.648;2023-02-19T06:14:51;6.20;;;3.43;;
54993;SDS011;40891;47.242;8.648;2023-02-19T06:17:16;5.17;;;3.27;;
54993;SDS011;40891;47.242;8.648;2023-02-19T06:19:42;5.27;;;3.53;;
54993;SDS011;40891;47.242;8.648;2023-02-19T06:22:07;4.53;;;3.23;;
54993;SDS011;40891;47.242;8.648;2023-02-19T06:24:33;7.27;;;3.93;;
54993;SDS011;40891;47.242;8.648;2023-02-19T06:27:01;4.00;;;3.10;;
54993;SDS011;40891;47.242;8.648;2023-02-19T06:29:30;5.90;;;3.60;;
54993;SDS011;40891;47.242;8.648;2023-02-19T06:31:56;4.70;;;3.23;;
54993;SDS011;40891;47.242;8.648;2023-02-19T06:34:22;4.00;;;2.80;;
54993;SDS011;40891;47.242;8.648;2023-02-19T06:36:47;5.70;;;3.20;;
54993;SDS011;40891;47.242;8.648;2023-02-19T06:39:13;7.27;;;3.20;;
54993;SDS011;40891;47.242;8.648;2023-02-19T06:41:38;5.53;;;3.70;;
54993;SDS011;40891;47.242;8.648;2023-02-19T06:44:04;5.07;;;3.63;;
54993;SDS011;40891;47.242;8.648;2023-02-19T06:46:29;5.00;;;3.17;;
54993;SDS011;40891;47.242;8.648;2023-02-19T06:48:54;5.63;;;3.27;;
54993;SDS011;40891;47.242;8.648;2023-02-19T06:51:20;5.17;;;3.37;;
54993;SDS011;40891;47.242;8.648;2023-02-19T06:53:51;8.60;;;3.87;;
54993;SDS011;40891;47.242;8.648;2023-02-19T06:59:07;4.87;;;3.17;;
54993;SDS011;40891;47.242;8.648;2023-02-19T07:01:35;7.70;;;3.27;;
54993;SDS011;40891;47.242;8.648;2023-02-19T07:04:01;5.70;;;3.07;;
54993;SDS011;40891;47.242;8.648;2023-02-19T07:06:28;5.30;;;2.70;;
54993;SDS011;40891;47.242;8.648;2023-02-19T07:08:54;4.90;;;2.77;;
54993;SDS011;40891;47.242;8.648;2023-02-19T07:11:21;3.13;;;2.50;;
54993;SDS011;40891;47.242;8.648;2023-02-19T07:13:46;2.40;;;2.00;;
54993;SDS011;40891;47.242;8.648;2023-02-19T07:16:12;4.10;;;3.00;;
54993;SDS011;40891;47.242;8.648;2023-02-19T07:18:39;3.37;;;2.30;;
54993;SDS011;40891;47.242;8.648;2023-02-19T07:21:09;4.47;;;2.93;;
54993;SDS011;40891;47.242;8.648;2023-02-19T07:23:36;9.40;;;5.30;;
54993;SDS011;40891;47.242;8.648;2023-02-19T07:26:02;4.03;;;3.00;;
54993;SDS011;40891;47.242;8.648;2023-02-19T07:28:28;5.93;;;3.00;;
54993;SDS011;40891;47.242;8.648;2023-02-19T07:30:54;5.90;;;3.77;;
54993;SDS011;40891;47.242;8.648;2023-02-19T07:33:24;4.10;;;2.97;;
54993;SDS011;40891;47.242;8.648;2023-02-19T07:35:49;4.33;;;3.27;;
54993;SDS011;40891;47.242;8.648;2023-02-19T07:38:19;3.30;;;2.80;;
54993;SDS011;40891;47.242;8.648;2023-02-19T07:40:49;5.93;;;2.70;;
54993;SDS011;40891;47.242;8.648;2023-02-19T07:43:26;6.03;;;2.70;;
54993;SDS011;40891;47.242;8.648;2023-02-19T07:45:54;3.73;;;2.67;;
54993;SDS011;40891;47.242;8.648;2023-02-19T07:48:19;3.10;;;2.53;;
54993;SDS011;40891;47.242;8.648;2023-02-19T07:50:52;4.33;;;2.70;;
54993;SDS011;40891;47.242;8.648;2023-02-19T07:53:23;4.90;;;3.13;;
54993;SDS011;40891;47.242;8.648;2023-02-19T07:55:49;5.43;;;2.97;;
54993;SDS011;40891;47.242;8.648;2023-02-19T07:58:15;4.57;;;2.90;;
54993;SDS011;40891;47.242;8.648;2023-02-19T08:00:40;4.67;;;2.70;;
54993;SDS011;40891;47.242;8.648;2023-02-19T08:03:06;5.20;;;3.27;;
54993;SDS011;40891;47.242;8.648;2023-02-19T08:05:41;3.67;;;2.37;;
54993;SDS011;40891;47.242;8.648;2023-02-19T08:08:13;3.50;;;2.80;;
54993;SDS011;40891;47.242;8.648;2023-02-19T08:10:39;2.77;;;2.23;;
54993;SDS011;40891;47.242;8.648;2023-02-19T08:13:24;4.17;;;2.73;;
54993;SDS011;40891;47.242;8.648;2023-02-19T08:15:55;5.27;;;2.50;;
54993;SDS011;40891;47.242;8.648;2023-02-19T08:18:34;3.97;;;2.20;;
54993;SDS011;40891;47.242;8.648;2023-02-19T08:20:59;6.93;;;2.77;;
54993;SDS011;40891;47.242;8.648;2023-02-19T08:23:26;4.20;;;2.53;;
54993;SDS011;40891;47.242;8.648;2023-02-19T08:25:52;3.80;;;2.70;;
54993;SDS011;40891;47.242;8.648;2023-02-19T08:28:20;4.37;;;2.43;;
54993;SDS011;40891;47.242;8.648;2023-02-19T08:30:46;7.67;;;2.60;;
54993;SDS011;40891;47.242;8.648;2023-02-19T08:33:12;3.47;;;2.50;;
54993;SDS011;40891;47.242;8.648;2023-02-19T08:35:39;4.67;;;2.47;;
54993;SDS011;40891;47.242;8.648;2023-02-19T08:38:06;2.60;;;2.17;;
54993;SDS011;40891;47.242;8.648;2023-02-19T08:40:33;3.37;;;2.30;;
54993;SDS011;40891;47.242;8.648;2023-02-19T08:43:02;3.20;;;2.30;;
54993;SDS011;40891;47.242;8.648;2023-02-19T08:45:29;3.83;;;2.33;;
54993;SDS011;40891;47.242;8.648;2023-02-19T08:47:55;3.37;;;2.53;;
54993;SDS011;40891;47.242;8.648;2023-02-19T08:50:21;4.00;;;2.30;;
54993;SDS011;40891;47.242;8.648;2023-02-19T08:52:46;2.77;;;2.30;;
54993;SDS011;40891;47.242;8.648;2023-02-19T08:55:12;2.80;;;2.20;;
54993;SDS011;40891;47.242;8.648;2023-02-19T08:57:37;2.60;;;1.87;;
54993;SDS011;40891;47.242;8.648;2023-02-19T09:00:03;3.93;;;2.27;;
54993;SDS011;40891;47.242;8.648;2023-02-19T09:02:30;3.70;;;2.37;;
54993;SDS011;40891;47.242;8.648;2023-02-19T09:04:55;2.70;;;1.90;;
54993;SDS011;40891;47.242;8.648;2023-02-19T09:07:20;3.50;;;2.33;;
54993;SDS011;40891;47.242;8.648;2023-02-19T09:09:47;3.30;;;2.03;;
54993;SDS011;40891;47.242;8.648;2023-02-19T09:12:12;3.37;;;2.00;;
54993;SDS011;40891;47.242;8.648;2023-02-19T09:14:38;2.27;;;1.90;;
54993;SDS011;40891;47.242;8.648;2023-02-19T09:17:04;2.43;;;2.07;;
54993;SDS011;40891;47.242;8.648;2023-02-19T09:19:30;2.47;;;2.00;;
54993;SDS011;40891;47.242;8.648;2023-02-19T09:21:56;3.10;;;2.40;;
54993;SDS011;40891;47.242;8.648;2023-02-19T09:24:22;3.03;;;2.17;;
54993;SDS011;40891;47.242;8.648;2023-02-19T09:26:49;3.33;;;2.07;;
54993;SDS011;40891;47.242;8.648;2023-02-19T09:29:18;4.60;;;2.53;;
54993;SDS011;40891;47.242;8.648;2023-02-19T09:31:44;4.43;;;2.37;;
54993;SDS011;40891;47.242;8.648;2023-02-19T09:34:10;3.20;;;2.23;;
54993;SDS011;40891;47.242;8.648;2023-02-19T09:36:36;4.03;;;2.53;;
54993;SDS011;40891;47.242;8.648;2023-02-19T09:39:03;3.47;;;2.60;;
54993;SDS011;40891;47.242;8.648;2023-02-19T09:41:31;3.20;;;2.27;;
54993;SDS011;40891;47.242;8.648;2023-02-19T09:43:59;3.13;;;2.63;;
54993;SDS011;40891;47.242;8.648;2023-02-19T09:49:17;3.50;;;2.17;;
54993;SDS011;40891;47.242;8.648;2023-02-19T09:51:50;4.27;;;2.67;;
54993;SDS011;40891;47.242;8.648;2023-02-19T09:54:20;4.83;;;2.50;;
54993;SDS011;40891;47.242;8.648;2023-02-19T09:56:48;5.30;;;3.07;;
54993;SDS011;40891;47.242;8.648;2023-02-19T09:59:19;4.97;;;2.50;;
54993;SDS011;40891;47.242;8.648;2023-02-19T10:01:48;3.20;;;2.23;;
54993;SDS011;40891;47.242;8.648;2023-02-19T10:04:19;3.90;;;2.60;;
54993;SDS011;40891;47.242;8.648;2023-02-19T10:06:44;3.33;;;2.43;;
54993;SDS011;40891;47.242;8.648;2023-02-19T10:09:21;3.73;;;2.30;;
54993;SDS011;40891;47.242;8.648;2023-02-19T10:11:51;2.73;;;2.23;;
54993;SDS011;40891;47.242;8.648;2023-02-19T10:14:20;4.63;;;2.50;;
54993;SDS011;40891;47.242;8.648;2023-02-19T10:16:52;4.23;;;2.30;;
54993;SDS011;40891;47.242;8.648;2023-02-19T10:19:17;3.23;;;2.00;;
54993;SDS011;40891;47.242;8.648;2023-02-19T10:21:43;2.37;;;1.90;;
54993;SDS011;40891;47.242;8.648;2023-02-19T10:24:12;2.20;;;1.80;;
54993;SDS011;40891;47.242;8.648;2023-02-19T10:26:49;3.33;;;1.80;;
54993;SDS011;40891;47.242;8.648;2023-02-19T10:29:15;4.83;;;1.97;;
54993;SDS011;40891;47.242;8.648;2023-02-19T10:31:40;4.10;;;2.20;;
54993;SDS011;40891;47.242;8.648;2023-02-19T10:34:06;3.42;;;1.83;;
54993;SDS011;40891;47.242;8.648;2023-02-19T10:36:46;2.97;;;1.90;;
54993;SDS011;40891;47.242;8.648;2023-02-19T10:41:45;2.20;;;1.73;;
54993;SDS011;40891;47.242;8.648;2023-02-19T10:44:13;2.45;;;1.58;;
54993;SDS011;40891;47.242;8.648;2023-02-19T10:46:46;2.17;;;1.60;;
54993;SDS011;40891;47.242;8.648;2023-02-19T10:49:19;2.25;;;1.40;;
54993;SDS011;40891;47.242;8.648;2023-02-19T10:51:50;2.33;;;1.70;;
54993;SDS011;40891;47.242;8.648;2023-02-19T10:54:18;2.72;;;1.60;;
54993;SDS011;40891;47.242;8.648;2023-02-19T10:56:49;1.58;;;1.48;;
54993;SDS011;40891;47.242;8.648;2023-02-19T11:02:14;1.80;;;1.50;;
54993;SDS011;40891;47.242;8.648;2023-02-19T11:04:41;3.08;;;1.70;;
54993;SDS011;40891;47.242;8.648;2023-02-19T11:07:11;1.90;;;1.30;;
54993;SDS011;40891;47.242;8.648;2023-02-19T11:09:41;2.00;;;1.50;;
54993;SDS011;40891;47.242;8.648;2023-02-19T11:12:10;2.13;;;1.48;;
54993;SDS011;40891;47.242;8.648;2023-02-19T11:14:40;1.83;;;1.52;;
54993;SDS011;40891;47.242;8.648;2023-02-19T11:17:16;2.15;;;1.60;;
54993;SDS011;40891;47.242;8.648;2023-02-19T11:19:46;2.22;;;1.65;;
54993;SDS011;40891;47.242;8.648;2023-02-19T11:22:34;3.60;;;1.80;;
54993;SDS011;40891;47.242;8.648;2023-02-19T11:27:34;4.28;;;1.50;;
54993;SDS011;40891;47.242;8.648;2023-02-19T11:30:19;2.97;;;1.85;;
54993;SDS011;40891;47.242;8.648;2023-02-19T11:32:54;2.17;;;1.90;;
54993;SDS011;40891;47.242;8.648;2023-02-19T11:35:19;2.40;;;1.88;;
54993;SDS011;40891;47.242;8.648;2023-02-19T11:37:55;8.27;;;2.05;;
54993;SDS011;40891;47.242;8.648;2023-02-19T11:40:46;1.92;;;1.70;;
54993;SDS011;40891;47.242;8.648;2023-02-19T11:49:47;1.90;;;1.57;;
54993;SDS011;40891;47.242;8.648;2023-02-19T11:52:28;3.20;;;1.80;;
54993;SDS011;40891;47.242;8.648;2023-02-19T11:55:07;2.30;;;2.00;;
54993;SDS011;40891;47.242;8.648;2023-02-19T11:58:28;2.92;;;2.00;;
54993;SDS011;40891;47.242;8.648;2023-02-19T12:00:33;3.95;;;2.35;;
54993;SDS011;40891;47.242;8.648;2023-02-19T12:20:48;2.33;;;1.23;;
54993;SDS011;40891;47.242;8.648;2023-02-19T12:23:28;1.30;;;1.20;;
54993;SDS011;40891;47.242;8.648;2023-02-19T12:26:22;1.20;;;1.10;;
54993;SDS011;40891;47.242;8.648;2023-02-19T12:31:37;1.27;;;1.17;;
54993;SDS011;40891;47.242;8.648;2023-02-19T12:34:46;2.13;;;1.10;;
54993;SDS011;40891;47.242;8.648;2023-02-19T12:43:20;1.10;;;1.00;;
54993;SDS011;40891;47.242;8.648;2023-02-19T12:51:11;1.80;;;0.90;;
54993;SDS011;40891;47.242;8.648;2023-02-19T12:53:44;0.97;;;0.80;;
54993;SDS011;40891;47.242;8.648;2023-02-19T12:56:15;1.80;;;0.80;;
54993;SDS011;40891;47.242;8.648;2023-02-19T12:58:47;0.73;;;0.67;;
54993;SDS011;40891;47.242;8.648;2023-02-19T13:01:22;0.90;;;0.70;;
54993;SDS011;40891;47.242;8.648;2023-02-19T13:04:12;0.60;;;0.60;;
54993;SDS011;40891;47.242;8.648;2023-02-19T13:06:44;1.40;;;0.60;;
54993;SDS011;40891;47.242;8.648;2023-02-19T13:09:19;0.90;;;0.70;;
54993;SDS011;40891;47.242;8.648;2023-02-19T13:18:00;0.70;;;0.70;;
54993;SDS011;40891;47.242;8.648;2023-02-19T13:20:35;0.97;;;0.80;;
54993;SDS011;40891;47.242;8.648;2023-02-19T13:23:06;1.07;;;0.90;;
54993;SDS011;40891;47.242;8.648;2023-02-19T13:25:59;0.80;;;0.70;;
54993;SDS011;40891;47.242;8.648;2023-02-19T13:34:06;2.00;;;1.00;;
54993;SDS011;40891;47.242;8.648;2023-02-19T13:36:52;1.10;;;0.90;;
54993;SDS011;40891;47.242;8.648;2023-02-19T13:39:19;3.10;;;0.70;;
54993;SDS011;40891;47.242;8.648;2023-02-19T13:41:49;0.87;;;0.70;;
54993;SDS011;40891;47.242;8.648;2023-02-19T13:44:18;1.07;;;0.80;;
54993;SDS011;40891;47.242;8.648;2023-02-19T13:46:46;0.60;;;0.60;;
54993;SDS011;40891;47.242;8.648;2023-02-19T13:51:56;2.63;;;0.90;;
54993;SDS011;40891;47.242;8.648;2023-02-19T13:54:33;1.47;;;0.77;;
54993;SDS011;40891;47.242;8.648;2023-02-19T13:59:47;1.07;;;0.70;;
54993;SDS011;40891;47.242;8.648;2023-02-19T14:05:04;1.03;;;0.93;;
54993;SDS011;40891;47.242;8.648;2023-02-19T14:07:47;0.77;;;0.77;;
54993;SDS011;40891;47.242;8.648;2023-02-19T14:10:49;1.00;;;0.90;;
54993;SDS011;40891;47.242;8.648;2023-02-19T14:16:30;0.97;;;0.83;;
54993;SDS011;40891;47.242;8.648;2023-02-19T14:18:57;2.20;;;0.90;;
54993;SDS011;40891;47.242;8.648;2023-02-19T14:21:23;1.33;;;0.87;;
54993;SDS011;40891;47.242;8.648;2023-02-19T14:23:58;4.37;;;1.00;;
54993;SDS011;40891;47.242;8.648;2023-02-19T14:26:24;2.17;;;1.00;;
54993;SDS011;40891;47.242;8.648;2023-02-19T14:28:51;2.73;;;0.73;;
54993;SDS011;40891;47.242;8.648;2023-02-19T14:31:20;0.97;;;0.70;;
54993;SDS011;40891;47.242;8.648;2023-02-19T14:33:51;1.87;;;1.10;;
54993;SDS011;40891;47.242;8.648;2023-02-19T14:36:22;1.63;;;0.90;;
54993;SDS011;40891;47.242;8.648;2023-02-19T14:38:52;1.13;;;0.80;;
54993;SDS011;40891;47.242;8.648;2023-02-19T14:41:23;2.07;;;0.80;;
54993;SDS011;40891;47.242;8.648;2023-02-19T14:43:51;1.27;;;0.93;;
54993;SDS011;40891;47.242;8.648;2023-02-19T14:46:28;1.70;;;0.70;;
54993;SDS011;40891;47.242;8.648;2023-02-19T14:49:15;2.37;;;0.93;;
54993;SDS011;40891;47.242;8.648;2023-02-19T14:51:42;1.57;;;0.87;;
54993;SDS011;40891;47.242;8.648;2023-02-19T14:54:18;1.60;;;0.77;;
54993;SDS011;40891;47.242;8.648;2023-02-19T14:56:53;1.83;;;0.80;;
54993;SDS011;40891;47.242;8.648;2023-02-19T15:01:44;0.97;;;0.73;;
54993;SDS011;40891;47.242;8.648;2023-02-19T15:04:23;1.10;;;0.90;;
54993;SDS011;40891;47.242;8.648;2023-02-19T15:06:52;2.37;;;0.80;;
54993;SDS011;40891;47.242;8.648;2023-02-19T15:09:20;1.13;;;0.80;;
54993;SDS011;40891;47.242;8.648;2023-02-19T15:11:53;1.03;;;0.90;;
54993;SDS011;40891;47.242;8.648;2023-02-19T15:14:19;3.57;;;1.00;;
54993;SDS011;40891;47.242;8.648;2023-02-19T15:16:47;2.87;;;0.90;;
54993;SDS011;40891;47.242;8.648;2023-02-19T15:19:19;3.70;;;1.23;;
54993;SDS011;40891;47.242;8.648;2023-02-19T15:21:47;2.63;;;1.23;;
54993;SDS011;40891;47.242;8.648;2023-02-19T15:24:14;1.53;;;1.17;;
54993;SDS011;40891;47.242;8.648;2023-02-19T15:26:42;3.33;;;1.03;;
54993;SDS011;40891;47.242;8.648;2023-02-19T15:29:14;1.10;;;0.80;;
54993;SDS011;40891;47.242;8.648;2023-02-19T15:31:45;2.00;;;1.00;;
54993;SDS011;40891;47.242;8.648;2023-02-19T15:34:20;1.97;;;0.90;;
54993;SDS011;40891;47.242;8.648;2023-02-19T15:36:48;1.00;;;0.90;;
54993;SDS011;40891;47.242;8.648;2023-02-19T15:39:17;0.97;;;0.87;;
54993;SDS011;40891;47.242;8.648;2023-02-19T15:41:49;1.37;;;0.97;;
54993;SDS011;40891;47.242;8.648;2023-02-19T15:46:58;3.13;;;1.10;;
54993;SDS011;40891;47.242;8.648;2023-02-19T15:50:14;1.33;;;1.03;;
54993;SDS011;40891;47.242;8.648;2023-02-19T15:57:34;1.77;;;1.20;;
54993;SDS011;40891;47.242;8.648;2023-02-19T16:00:16;1.00;;;0.90;;
54993;SDS011;40891;47.242;8.648;2023-02-19T16:02:55;5.50;;;1.20;;
54993;SDS011;40891;47.242;8.648;2023-02-19T16:05:23;3.47;;;0.87;;
54993;SDS011;40891;47.242;8.648;2023-02-19T16:08:06;1.27;;;1.03;;
54993;SDS011;40891;47.242;8.648;2023-02-19T16:10:35;3.60;;;2.07;;
54993;SDS011;40891;47.242;8.648;2023-02-19T16:13:01;1.53;;;1.03;;
54993;SDS011;40891;47.242;8.648;2023-02-19T16:15:29;1.17;;;0.83;;
54993;SDS011;40891;47.242;8.648;2023-02-19T16:17:56;1.07;;;0.87;;
54993;SDS011;40891;47.242;8.648;2023-02-19T16:22:48;3.33;;;1.37;;
54993;SDS011;40891;47.242;8.648;2023-02-19T16:25:48;1.80;;;1.40;;
54993;SDS011;40891;47.242;8.648;2023-02-19T16:28:18;1.73;;;1.20;;
54993;SDS011;40891;47.242;8.648;2023-02-19T16:30:53;1.13;;;0.93;;
54993;SDS011;40891;47.242;8.648;2023-02-19T16:36:14;2.03;;;1.07;;
54993;SDS011;40891;47.242;8.648;2023-02-19T16:41:57;4.20;;;1.27;;
54993;SDS011;40891;47.242;8.648;2023-02-19T16:44:38;1.50;;;1.00;;
54993;SDS011;40891;47.242;8.648;2023-02-19T16:47:05;1.17;;;1.00;;
54993;SDS011;40891;47.242;8.648;2023-02-19T16:49:44;1.97;;;1.03;;
54993;SDS011;40891;47.242;8.648;2023-02-19T16:52:13;3.33;;;1.27;;
54993;SDS011;40891;47.242;8.648;2023-02-19T16:54:39;0.87;;;0.80;;
54993;SDS011;40891;47.242;8.648;2023-02-19T16:57:05;1.20;;;1.00;;
54993;SDS011;40891;47.242;8.648;2023-02-19T16:59:30;1.53;;;1.00;;
54993;SDS011;40891;47.242;8.648;2023-02-19T17:01:55;2.33;;;1.03;;
54993;SDS011;40891;47.242;8.648;2023-02-19T17:04:21;2.60;;;0.90;;
54993;SDS011;40891;47.242;8.648;2023-02-19T17:06:46;2.43;;;1.10;;
54993;SDS011;40891;47.242;8.648;2023-02-19T17:09:12;1.77;;;1.00;;